createdAt,value
2022-10-21T00:00:45.011Z,1022.76
2022-10-21T00:01:45.014Z,1022.69
2022-10-21T00:02:45.017Z,1022.65
2022-10-21T00:03:45.009Z,1022.72
2022-10-21T00:04:45.002Z,1022.57
2022-10-21T00:05:45.045Z,1022.76
2022-10-21T00:06:45.023Z,1022.72
2022-10-21T00:07:44.999Z,1022.51
2022-10-21T00:08:45.021Z,1022.58
2022-10-21T00:09:45.004Z,1022.53
2022-10-21T00:10:45.048Z,1022.51
2022-10-21T00:11:45.028Z,1022.42
2022-10-21T00:12:44.999Z,1022.55
2022-10-21T00:13:45.007Z,1022.53
2022-10-21T00:14:45.003Z,1022.47
2022-10-21T00:15:45.044Z,1022.47
2022-10-21T00:16:45.003Z,1022.33
2022-10-21T00:17:45.003Z,1022.49
2022-10-21T00:18:45.003Z,1022.27
2022-10-21T00:19:44.998Z,1022.32
2022-10-21T00:20:45.016Z,1022.4
2022-10-21T00:21:45.030Z,1022.1
2022-10-21T00:22:45.002Z,1022.09
2022-10-21T00:23:45.023Z,1022.02
2022-10-21T00:24:45.020Z,1022.05
2022-10-21T00:25:45.042Z,1022.06
2022-10-21T00:26:45.013Z,1022.06
2022-10-21T00:27:45.024Z,1022.12
2022-10-21T00:28:45.025Z,1022.05
2022-10-21T00:29:45.025Z,1022.05
2022-10-21T00:30:45.019Z,1022.05
2022-10-21T00:31:45.020Z,1022.07
2022-10-21T00:32:45.017Z,1022.08
2022-10-21T00:33:45.019Z,1021.96
2022-10-21T00:34:45.024Z,1021.95
2022-10-21T00:35:45.046Z,1021.92
2022-10-21T00:36:45.013Z,1022.01
2022-10-21T00:37:45.014Z,1021.92
2022-10-21T00:38:45.019Z,1022
2022-10-21T00:39:45.016Z,1021.87
2022-10-21T00:40:45.037Z,1021.97
2022-10-21T00:41:45.018Z,1022
2022-10-21T00:42:46.727Z,1021.98
2022-10-21T00:43:45.012Z,1021.97
2022-10-21T00:44:45.012Z,1021.95
2022-10-21T00:45:45.039Z,1021.88
2022-10-21T00:46:45.016Z,1021.92
2022-10-21T00:47:45.146Z,1022.05
2022-10-21T00:48:45.013Z,1022.06
2022-10-21T00:49:45.021Z,1022
2022-10-21T00:50:45.023Z,1022.08
2022-10-21T00:51:45.023Z,1022.05
2022-10-21T00:52:45.029Z,1022.07
2022-10-21T00:53:45.019Z,1022.05
2022-10-21T00:54:45.024Z,1021.97
2022-10-21T00:55:45.033Z,1021.96
2022-10-21T00:56:45.104Z,1021.97
2022-10-21T00:57:45.024Z,1022.02
2022-10-21T00:58:45.018Z,1022.08
2022-10-21T00:59:45.022Z,1022.05
2022-10-21T01:00:45.044Z,1022.09
2022-10-21T01:01:45.014Z,1022.15
2022-10-21T01:02:45.029Z,1022.03
2022-10-21T01:03:45.018Z,1021.91
2022-10-21T01:04:45.013Z,1022
2022-10-21T01:05:45.094Z,1021.99
2022-10-21T01:06:45.017Z,1022.09
2022-10-21T01:07:45.383Z,1021.99
2022-10-21T01:08:45.098Z,1022.18
2022-10-21T01:09:45.025Z,1022.06
2022-10-21T01:10:45.046Z,1022.03
2022-10-21T01:11:45.024Z,1022.19
2022-10-21T01:12:45.024Z,1022.29
2022-10-21T01:13:45.032Z,1022.11
2022-10-21T01:14:45.014Z,1022.08
2022-10-21T01:15:45.011Z,1022.02
2022-10-21T01:16:48.017Z,1022.06
2022-10-21T01:17:45.751Z,1022
2022-10-21T01:18:44.999Z,1021.92
2022-10-21T01:19:45.000Z,1021.97
2022-10-21T01:20:45.024Z,1021.89
2022-10-21T01:21:45.038Z,1022
2022-10-21T01:22:45.023Z,1021.94
2022-10-21T01:23:45.036Z,1021.86
2022-10-21T01:24:44.999Z,1021.97
2022-10-21T01:25:45.034Z,1021.9
2022-10-21T01:26:44.997Z,1021.81
2022-10-21T01:27:45.007Z,1021.84
2022-10-21T01:28:44.995Z,1021.62
2022-10-21T01:29:45.004Z,1021.62
2022-10-21T01:30:45.010Z,1021.61
2022-10-21T01:31:45.018Z,1021.59
2022-10-21T01:32:45.001Z,1021.55
2022-10-21T01:33:45.010Z,1021.62
2022-10-21T01:34:45.002Z,1021.57
2022-10-21T01:35:45.042Z,1021.6
2022-10-21T01:36:45.013Z,1021.51
2022-10-21T01:37:45.072Z,1021.49
2022-10-21T01:38:45.013Z,1021.42
2022-10-21T01:39:45.016Z,1021.44
2022-10-21T01:40:45.031Z,1021.48
2022-10-21T01:41:45.016Z,1021.43
2022-10-21T01:42:45.029Z,1021.44
2022-10-21T01:43:45.048Z,1021.39
2022-10-21T01:44:45.018Z,1021.35
2022-10-21T01:45:45.034Z,1021.25
2022-10-21T01:46:45.018Z,1021.15
2022-10-21T01:47:45.018Z,1021.35
2022-10-21T01:48:45.021Z,1021.18
2022-10-21T01:49:45.019Z,1021.12
2022-10-21T01:50:45.036Z,1021.29
2022-10-21T01:51:45.016Z,1021.2
2022-10-21T01:52:45.016Z,1021.25
2022-10-21T01:53:45.020Z,1021.13
2022-10-21T01:54:45.027Z,1021.35
2022-10-21T01:55:45.035Z,1021.03
2022-10-21T01:56:45.014Z,1021.21
2022-10-21T01:57:45.019Z,1021.05
2022-10-21T01:58:45.016Z,1021.01
2022-10-21T01:59:45.019Z,1021.19
2022-10-21T02:00:45.108Z,1021.02
2022-10-21T02:01:45.011Z,1021.05
2022-10-21T02:02:45.020Z,1021.14
2022-10-21T02:03:45.014Z,1021.11
2022-10-21T02:04:45.008Z,1021.12
2022-10-21T02:05:45.047Z,1021.18
2022-10-21T02:06:45.008Z,1021.11
2022-10-21T02:07:45.021Z,1021.11
2022-10-21T02:08:45.091Z,1021.19
2022-10-21T02:09:45.022Z,1021.15
2022-10-21T02:10:45.023Z,1021.12
2022-10-21T02:11:45.024Z,1021.14
2022-10-21T02:12:45.020Z,1021.13
2022-10-21T02:13:45.027Z,1021.18
2022-10-21T02:14:45.015Z,1021.13
2022-10-21T02:15:45.024Z,1021.12
2022-10-21T02:16:45.013Z,1021.15
2022-10-21T02:17:45.008Z,1021.04
2022-10-21T02:18:45.015Z,1021.09
2022-10-21T02:19:45.026Z,1021.04
2022-10-21T02:20:45.030Z,1020.85
2022-10-21T02:21:45.017Z,1021.01
2022-10-21T02:22:45.040Z,1020.92
2022-10-21T02:23:45.014Z,1020.94
2022-10-21T02:24:45.002Z,1020.92
2022-10-21T02:25:45.037Z,1020.9
2022-10-21T02:26:45.006Z,1020.93
2022-10-21T02:27:45.003Z,1020.9
2022-10-21T02:28:45.042Z,1020.96
2022-10-21T02:29:45.076Z,1020.92
2022-10-21T02:30:45.015Z,1020.85
2022-10-21T02:31:45.003Z,1020.92
2022-10-21T02:32:45.000Z,1020.89
2022-10-21T02:33:45.057Z,1020.87
2022-10-21T02:34:45.003Z,1020.9
2022-10-21T02:35:45.017Z,1020.75
2022-10-21T02:36:45.003Z,1020.85
2022-10-21T02:37:44.998Z,1021.03
2022-10-21T02:38:45.002Z,1020.84
2022-10-21T02:39:45.089Z,1020.89
2022-10-21T02:40:45.015Z,1020.95
2022-10-21T02:41:45.002Z,1020.85
2022-10-21T02:42:45.014Z,1020.8
2022-10-21T02:43:45.011Z,1020.81
2022-10-21T02:44:45.016Z,1020.9
2022-10-21T02:45:45.024Z,1020.86
2022-10-21T02:46:45.025Z,1020.87
2022-10-21T02:47:45.012Z,1020.85
2022-10-21T02:48:45.020Z,1020.96
2022-10-21T02:49:45.018Z,1020.85
2022-10-21T02:50:45.027Z,1021.03
2022-10-21T02:51:45.015Z,1020.82
2022-10-21T02:52:45.017Z,1020.73
2022-10-21T02:53:45.026Z,1020.77
2022-10-21T02:54:45.017Z,1020.78
2022-10-21T02:55:45.031Z,1020.62
2022-10-21T02:56:45.016Z,1020.67
2022-10-21T02:57:45.015Z,1020.62
2022-10-21T02:58:45.026Z,1020.47
2022-10-21T02:59:45.010Z,1020.79
2022-10-21T03:00:45.080Z,1020.67
2022-10-21T03:01:45.018Z,1020.67
2022-10-21T03:02:45.020Z,1020.63
2022-10-21T03:03:45.015Z,1020.64
2022-10-21T03:04:45.021Z,1020.62
2022-10-21T03:05:45.066Z,1020.54
2022-10-21T03:06:45.015Z,1020.54
2022-10-21T03:07:45.015Z,1020.49
2022-10-21T03:08:45.049Z,1020.5
2022-10-21T03:09:45.017Z,1020.59
2022-10-21T03:10:48.005Z,1020.65
2022-10-21T03:11:45.026Z,1020.65
2022-10-21T03:12:45.016Z,1020.41
2022-10-21T03:13:45.012Z,1020.47
2022-10-21T03:14:45.025Z,1020.52
2022-10-21T03:15:45.035Z,1020.47
2022-10-21T03:16:45.019Z,1020.46
2022-10-21T03:17:45.013Z,1020.6
2022-10-21T03:18:45.019Z,1020.56
2022-10-21T03:19:45.017Z,1020.56
2022-10-21T03:20:45.030Z,1020.67
2022-10-21T03:21:45.019Z,1020.55
2022-10-21T03:22:45.017Z,1020.61
2022-10-21T03:23:45.018Z,1020.63
2022-10-21T03:24:45.024Z,1020.62
2022-10-21T03:25:45.038Z,1020.61
2022-10-21T03:26:45.018Z,1020.51
2022-10-21T03:27:45.023Z,1020.59
2022-10-21T03:28:45.038Z,1020.27
2022-10-21T03:29:45.018Z,1020.49
2022-10-21T03:30:45.008Z,1020.48
2022-10-21T03:31:45.028Z,1020.52
2022-10-21T03:32:44.997Z,1020.34
2022-10-21T03:33:44.995Z,1020.21
2022-10-21T03:34:45.010Z,1020.23
2022-10-21T03:35:45.033Z,1020.24
2022-10-21T03:36:45.001Z,1020.17
2022-10-21T03:37:45.044Z,1020.17
2022-10-21T03:38:45.031Z,1020.01
2022-10-21T03:39:45.010Z,1020.05
2022-10-21T03:40:45.013Z,1019.96
2022-10-21T03:41:45.003Z,1019.95
2022-10-21T03:42:44.998Z,1020.04
2022-10-21T03:43:45.000Z,1019.96
2022-10-21T03:44:45.000Z,1019.96
2022-10-21T03:45:45.014Z,1019.95
2022-10-21T03:46:45.001Z,1019.88
2022-10-21T03:47:44.995Z,1019.87
2022-10-21T03:48:45.005Z,1019.89
2022-10-21T03:49:45.029Z,1019.92
2022-10-21T03:50:45.016Z,1019.86
2022-10-21T03:51:44.999Z,1019.94
2022-10-21T03:52:45.011Z,1020.06
2022-10-21T03:53:45.012Z,1019.99
2022-10-21T03:54:45.032Z,1020.12
2022-10-21T03:55:45.035Z,1020.09
2022-10-21T03:56:45.017Z,1020.14
2022-10-21T03:57:45.009Z,1020
2022-10-21T03:58:45.026Z,1020.05
2022-10-21T03:59:45.009Z,1020.06
2022-10-21T04:00:45.011Z,1020.13
2022-10-21T04:01:45.084Z,1020.05
2022-10-21T04:02:45.023Z,1020.08
2022-10-21T04:03:45.014Z,1020.06
2022-10-21T04:04:45.020Z,1020.13
2022-10-21T04:05:45.036Z,1020.1
2022-10-21T04:06:45.039Z,1020.19
2022-10-21T04:07:49.286Z,1020.11
2022-10-21T04:08:45.123Z,1020.16
2022-10-21T04:09:45.017Z,1019.97
2022-10-21T04:10:45.086Z,1019.97
2022-10-21T04:11:45.010Z,1019.97
2022-10-21T04:12:45.019Z,1019.89
2022-10-21T04:13:45.017Z,1019.99
2022-10-21T04:14:45.016Z,1019.85
2022-10-21T04:15:45.034Z,1019.98
2022-10-21T04:16:47.939Z,1019.86
2022-10-21T04:17:45.012Z,1019.88
2022-10-21T04:18:45.028Z,1019.9
2022-10-21T04:19:45.018Z,1019.84
2022-10-21T04:20:45.011Z,1019.89
2022-10-21T04:21:45.010Z,1019.78
2022-10-21T04:22:45.022Z,1019.8
2022-10-21T04:23:45.017Z,1019.73
2022-10-21T04:24:45.014Z,1019.65
2022-10-21T04:25:45.035Z,1019.71
2022-10-21T04:26:45.018Z,1019.61
2022-10-21T04:27:45.018Z,1019.66
2022-10-21T04:28:45.004Z,1019.58
2022-10-21T04:29:45.020Z,1019.57
2022-10-21T04:30:45.059Z,1019.62
2022-10-21T04:31:45.077Z,1019.68
2022-10-21T04:32:45.018Z,1019.61
2022-10-21T04:33:45.013Z,1019.73
2022-10-21T04:34:45.038Z,1019.76
2022-10-21T04:35:45.182Z,1019.76
2022-10-21T04:36:45.010Z,1019.71
2022-10-21T04:37:45.018Z,1019.75
2022-10-21T04:38:45.008Z,1019.79
2022-10-21T04:39:45.032Z,1019.79
2022-10-21T04:40:45.046Z,1019.89
2022-10-21T04:41:45.022Z,1020
2022-10-21T04:42:45.016Z,1019.95
2022-10-21T04:43:45.018Z,1019.82
2022-10-21T04:44:45.006Z,1019.78
2022-10-21T04:45:45.016Z,1019.86
2022-10-21T04:46:45.002Z,1020.05
2022-10-21T04:47:45.002Z,1019.8
2022-10-21T04:48:44.998Z,1019.7
2022-10-21T04:49:45.005Z,1019.63
2022-10-21T04:50:45.015Z,1019.67
2022-10-21T04:51:44.998Z,1019.53
2022-10-21T04:52:44.997Z,1019.48
2022-10-21T04:53:45.000Z,1019.46
2022-10-21T04:54:44.997Z,1019.36
2022-10-21T04:55:45.030Z,1019.39
2022-10-21T04:56:44.999Z,1019.34
2022-10-21T04:57:45.012Z,1019.46
2022-10-21T04:58:45.000Z,1019.24
2022-10-21T04:59:45.004Z,1019.34
2022-10-21T05:00:45.056Z,1019.39
2022-10-21T05:01:45.006Z,1019.38
2022-10-21T05:02:45.019Z,1019.36
2022-10-21T05:03:45.000Z,1019.4
2022-10-21T05:04:45.011Z,1019.32
2022-10-21T05:05:45.016Z,1019.36
2022-10-21T05:06:45.025Z,1019.29
2022-10-21T05:07:45.014Z,1019.28
2022-10-21T05:08:45.082Z,1019.27
2022-10-21T05:09:45.014Z,1019.26
2022-10-21T05:10:45.026Z,1019.21
2022-10-21T05:11:45.017Z,1019.21
2022-10-21T05:12:45.014Z,1019.24
2022-10-21T05:13:45.009Z,1019.11
2022-10-21T05:14:45.019Z,1019.07
2022-10-21T05:15:45.025Z,1019.03
2022-10-21T05:16:45.018Z,1019.06
2022-10-21T05:17:45.011Z,1019.08
2022-10-21T05:18:45.010Z,1019.1
2022-10-21T05:19:45.011Z,1018.99
2022-10-21T05:20:45.029Z,1019.06
2022-10-21T05:21:45.066Z,1019.01
2022-10-21T05:22:45.017Z,1018.89
2022-10-21T05:23:45.015Z,1018.86
2022-10-21T05:24:45.019Z,1018.93
2022-10-21T05:25:45.094Z,1018.87
2022-10-21T05:26:45.013Z,1018.99
2022-10-21T05:27:45.023Z,1018.88
2022-10-21T05:28:45.009Z,1018.99
2022-10-21T05:29:45.011Z,1018.99
2022-10-21T05:30:45.027Z,1018.98
2022-10-21T05:31:45.015Z,1018.91
2022-10-21T05:32:45.023Z,1018.99
2022-10-21T05:33:45.014Z,1018.97
2022-10-21T05:34:45.018Z,1018.87
2022-10-21T05:35:45.022Z,1018.97
2022-10-21T05:36:45.007Z,1019.05
2022-10-21T05:37:45.026Z,1018.96
2022-10-21T05:38:45.017Z,1018.98
2022-10-21T05:39:45.028Z,1018.98
2022-10-21T05:40:45.218Z,1018.93
2022-10-21T05:41:47.794Z,1018.94
2022-10-21T05:42:45.019Z,1019.02
2022-10-21T05:43:45.018Z,1019.07
2022-10-21T05:44:45.025Z,1018.97
2022-10-21T05:45:45.053Z,1018.98
2022-10-21T05:46:45.016Z,1018.96
2022-10-21T05:47:45.059Z,1018.99
2022-10-21T05:48:45.023Z,1018.92
2022-10-21T05:49:45.014Z,1018.83
2022-10-21T05:50:45.025Z,1018.84
2022-10-21T05:51:45.022Z,1018.85
2022-10-21T05:52:45.017Z,1018.83
2022-10-21T05:53:45.013Z,1018.73
2022-10-21T05:54:45.000Z,1019.1
2022-10-21T05:55:45.025Z,1018.82
2022-10-21T05:56:45.016Z,1018.81
2022-10-21T05:57:45.065Z,1018.78
2022-10-21T05:58:45.002Z,1018.72
2022-10-21T05:59:44.996Z,1018.88
2022-10-21T06:00:45.103Z,1018.85
2022-10-21T06:01:45.012Z,1018.83
2022-10-21T06:02:45.005Z,1018.83
2022-10-21T06:03:45.048Z,1018.92
2022-10-21T06:04:45.009Z,1018.83
2022-10-21T06:05:45.025Z,1018.95
2022-10-21T06:06:45.116Z,1018.85
2022-10-21T06:07:44.996Z,1019.01
2022-10-21T06:08:45.100Z,1019
2022-10-21T06:09:44.995Z,1018.99
2022-10-21T06:10:45.026Z,1018.97
2022-10-21T06:11:45.018Z,1018.97
2022-10-21T06:12:45.017Z,1019.04
2022-10-21T06:13:45.018Z,1018.99
2022-10-21T06:14:45.024Z,1019.08
2022-10-21T06:15:50.217Z,1019.04
2022-10-21T06:16:45.018Z,1019
2022-10-21T06:17:45.008Z,1019.05
2022-10-21T06:18:45.070Z,1019.07
2022-10-21T06:19:47.479Z,1018.96
2022-10-21T06:20:45.014Z,1019.02
2022-10-21T06:21:45.012Z,1018.96
2022-10-21T06:22:45.010Z,1019.01
2022-10-21T06:23:45.018Z,1018.88
2022-10-21T06:24:45.025Z,1018.94
2022-10-21T06:25:45.037Z,1018.89
2022-10-21T06:26:45.030Z,1018.84
2022-10-21T06:27:45.019Z,1018.82
2022-10-21T06:28:45.017Z,1018.76
2022-10-21T06:29:45.007Z,1018.8
2022-10-21T06:30:45.040Z,1018.84
2022-10-21T06:31:45.011Z,1018.8
2022-10-21T06:32:45.022Z,1018.71
2022-10-21T06:33:45.013Z,1018.77
2022-10-21T06:34:45.030Z,1018.78
2022-10-21T06:35:45.033Z,1018.69
2022-10-21T06:36:45.021Z,1018.79
2022-10-21T06:37:45.009Z,1018.65
2022-10-21T06:38:45.007Z,1018.76
2022-10-21T06:39:45.008Z,1018.73
2022-10-21T06:40:45.031Z,1018.74
2022-10-21T06:41:45.040Z,1018.78
2022-10-21T06:42:45.016Z,1018.7
2022-10-21T06:43:45.013Z,1018.78
2022-10-21T06:44:45.036Z,1018.82
2022-10-21T06:45:45.059Z,1018.72
2022-10-21T06:46:45.025Z,1018.73
2022-10-21T06:47:45.025Z,1018.66
2022-10-21T06:48:45.016Z,1018.76
2022-10-21T06:49:45.008Z,1018.72
2022-10-21T06:50:45.027Z,1018.77
2022-10-21T06:51:45.016Z,1018.79
2022-10-21T06:52:45.017Z,1018.77
2022-10-21T06:53:45.007Z,1018.75
2022-10-21T06:54:45.009Z,1018.8
2022-10-21T06:55:45.027Z,1018.88
2022-10-21T06:56:45.030Z,1018.87
2022-10-21T06:57:45.014Z,1018.8
2022-10-21T06:58:45.022Z,1018.65
2022-10-21T06:59:44.999Z,1018.77
2022-10-21T07:00:45.036Z,1018.87
2022-10-21T07:01:59.818Z,1018.71
2022-10-21T07:02:45.030Z,1018.7
2022-10-21T07:03:45.016Z,1018.69
2022-10-21T07:04:45.012Z,1018.77
2022-10-21T07:05:45.024Z,1018.69
2022-10-21T07:06:45.018Z,1018.83
2022-10-21T07:07:45.127Z,1018.82
2022-10-21T07:08:54.049Z,1018.77
2022-10-21T07:09:45.077Z,1018.75
2022-10-21T07:10:45.004Z,1018.72
2022-10-21T07:11:45.016Z,1018.72
2022-10-21T07:12:44.996Z,1018.75
2022-10-21T07:13:44.998Z,1018.71
2022-10-21T07:14:44.997Z,1018.82
2022-10-21T07:15:45.068Z,1018.76
2022-10-21T07:16:45.006Z,1018.84
2022-10-21T07:17:45.004Z,1018.85
2022-10-21T07:18:45.003Z,1018.78
2022-10-21T07:19:44.999Z,1018.78
2022-10-21T07:20:45.008Z,1018.93
2022-10-21T07:21:45.012Z,1019
2022-10-21T07:22:45.006Z,1019.01
2022-10-21T07:23:44.996Z,1018.84
2022-10-21T07:24:45.014Z,1018.88
2022-10-21T07:25:45.016Z,1019.01
2022-10-21T07:26:45.039Z,1018.93
2022-10-21T07:27:47.593Z,1019.03
2022-10-21T07:28:45.021Z,1018.87
2022-10-21T07:29:45.014Z,1018.78
2022-10-21T07:30:45.010Z,1018.66
2022-10-21T07:31:45.017Z,1018.84
2022-10-21T07:32:45.016Z,1018.88
2022-10-21T07:33:45.018Z,1018.91
2022-10-21T07:34:45.004Z,1018.87
2022-10-21T07:35:45.035Z,1018.82
2022-10-21T07:36:45.012Z,1019.12
2022-10-21T07:37:45.015Z,1019.17
2022-10-21T07:38:45.023Z,1018.98
2022-10-21T07:39:45.022Z,1019.17
2022-10-21T07:40:45.031Z,1019.03
2022-10-21T07:41:45.027Z,1018.97
2022-10-21T07:42:45.021Z,1019.13
2022-10-21T07:43:45.016Z,1019.06
2022-10-21T07:44:45.018Z,1019.07
2022-10-21T07:45:45.025Z,1018.94
2022-10-21T07:46:45.020Z,1018.77
2022-10-21T07:47:45.019Z,1018.93
2022-10-21T07:48:45.021Z,1018.94
2022-10-21T07:49:45.022Z,1019.01
2022-10-21T07:50:45.016Z,1018.76
2022-10-21T07:51:45.011Z,1018.77
2022-10-21T07:52:51.790Z,1018.8
2022-10-21T07:53:45.017Z,1018.73
2022-10-21T07:54:45.021Z,1018.81
2022-10-21T07:55:45.032Z,1018.74
2022-10-21T07:56:45.023Z,1018.66
2022-10-21T07:57:45.012Z,1018.69
2022-10-21T07:58:45.004Z,1018.6
2022-10-21T07:59:45.008Z,1018.46
2022-10-21T08:00:45.065Z,1018.56
2022-10-21T08:01:45.215Z,1018.69
2022-10-21T08:02:45.012Z,1018.55
2022-10-21T08:03:45.004Z,1018.51
2022-10-21T08:04:45.015Z,1018.55
2022-10-21T08:05:45.022Z,1018.33
2022-10-21T08:06:45.012Z,1018.43
2022-10-21T08:07:45.092Z,1018.46
2022-10-21T08:08:45.093Z,1018.43
2022-10-21T08:09:45.005Z,1018.46
2022-10-21T08:10:45.048Z,1018.38
2022-10-21T08:11:45.027Z,1018.38
2022-10-21T08:12:45.025Z,1018.38
2022-10-21T08:13:45.012Z,1018.45
2022-10-21T08:14:45.008Z,1018.3
2022-10-21T08:15:45.019Z,1018.32
2022-10-21T08:16:45.005Z,1018.31
2022-10-21T08:17:45.005Z,1018.29
2022-10-21T08:18:45.001Z,1018.37
2022-10-21T08:19:45.059Z,1018.33
2022-10-21T08:20:45.021Z,1018.33
2022-10-21T08:21:45.007Z,1018.46
2022-10-21T08:22:44.994Z,1018.53
2022-10-21T08:23:45.000Z,1018.58
2022-10-21T08:24:44.996Z,1018.59
2022-10-21T08:25:45.015Z,1018.63
2022-10-21T08:26:45.017Z,1018.56
2022-10-21T08:27:45.000Z,1018.63
2022-10-21T08:28:45.045Z,1018.47
2022-10-21T08:29:44.997Z,1018.55
2022-10-21T08:30:45.005Z,1018.64
2022-10-21T08:31:45.003Z,1018.55
2022-10-21T08:32:45.019Z,1018.57
2022-10-21T08:33:44.997Z,1018.72
2022-10-21T08:34:45.029Z,1018.66
2022-10-21T08:35:45.015Z,1018.53
2022-10-21T08:36:45.003Z,1018.48
2022-10-21T08:37:44.999Z,1018.53
2022-10-21T08:38:45.009Z,1018.53
2022-10-21T08:39:45.006Z,1018.42
2022-10-21T08:40:45.064Z,1018.42
2022-10-21T08:41:45.016Z,1018.68
2022-10-21T08:42:45.006Z,1018.59
2022-10-21T08:43:45.024Z,1018.54
2022-10-21T08:44:45.014Z,1018.61
2022-10-21T08:45:45.027Z,1018.57
2022-10-21T08:46:45.010Z,1018.59
2022-10-21T08:47:45.019Z,1018.61
2022-10-21T08:48:45.009Z,1018.59
2022-10-21T08:49:45.023Z,1018.7
2022-10-21T08:50:45.097Z,1018.72
2022-10-21T08:51:45.014Z,1018.59
2022-10-21T08:52:45.011Z,1018.55
2022-10-21T08:53:45.018Z,1018.63
2022-10-21T08:54:45.128Z,1018.7
2022-10-21T08:55:45.028Z,1018.64
2022-10-21T08:56:45.030Z,1018.55
2022-10-21T08:57:45.074Z,1018.71
2022-10-21T08:58:45.049Z,1018.73
2022-10-21T08:59:45.007Z,1018.5
2022-10-21T09:00:45.026Z,1018.28
2022-10-21T09:01:45.016Z,1018.33
2022-10-21T09:02:45.081Z,1018.26
2022-10-21T09:03:45.020Z,1018.22
2022-10-21T09:04:45.024Z,1018.22
2022-10-21T09:05:45.032Z,1018.27
2022-10-21T09:06:45.015Z,1018.37
2022-10-21T09:07:45.006Z,1018.38
2022-10-21T09:08:45.082Z,1018.29
2022-10-21T09:09:45.012Z,1018.72
2022-10-21T09:10:45.029Z,1018.22
2022-10-21T09:11:45.032Z,1018.22
2022-10-21T09:12:45.011Z,1018.24
2022-10-21T09:13:45.015Z,1018.33
2022-10-21T09:14:45.010Z,1018.23
2022-10-21T09:15:45.035Z,1018.28
2022-10-21T09:16:45.023Z,1018.33
2022-10-21T09:17:45.022Z,1018.49
2022-10-21T09:18:45.009Z,1018.36
2022-10-21T09:19:44.996Z,1018.36
2022-10-21T09:21:29.463Z,1018.29
2022-10-21T09:22:35.371Z,1018.27
2022-10-21T09:23:28.416Z,1018.37
2022-10-21T09:24:28.272Z,1018.32
2022-10-21T09:25:28.275Z,1018.33
2022-10-21T09:26:30.284Z,1018.31
2022-10-21T09:27:51.488Z,1018.31
2022-10-21T09:28:28.262Z,1018.32
2022-10-21T09:29:28.263Z,1018.39
2022-10-21T09:30:28.263Z,1018.39
2022-10-21T09:31:28.256Z,1018.35
2022-10-21T09:33:50.410Z,1018.28
2022-10-21T09:34:49.360Z,1018.36
2022-10-21T09:35:49.358Z,1018.37
2022-10-21T09:36:49.364Z,1018.42
2022-10-21T09:37:49.344Z,1018.42
2022-10-21T09:38:49.439Z,1018.51
2022-10-21T09:39:49.343Z,1018.3
2022-10-21T09:40:49.349Z,1018.25
2022-10-21T09:41:49.340Z,1018.37
2022-10-21T09:42:57.832Z,1018.37
2022-10-21T09:43:56.887Z,1018.42
2022-10-21T09:44:56.871Z,1018.4
2022-10-21T09:46:16.811Z,1018.41
2022-10-21T09:47:15.818Z,1018.31
2022-10-21T09:48:15.802Z,1018.28
2022-10-21T09:49:41.991Z,1018.28
2022-10-21T09:50:29.281Z,1018.18
2022-10-21T09:51:27.504Z,1018.18
2022-10-21T09:52:27.486Z,1018.14
2022-10-21T09:53:27.482Z,1018.11
2022-10-21T09:54:27.470Z,1018.16
2022-10-21T09:55:35.703Z,1018.22
2022-10-21T09:56:34.796Z,1018.18
2022-10-21T09:58:43.791Z,1018.2
2022-10-21T10:00:37.883Z,1018.26
2022-10-21T10:01:36.884Z,1018.28
2022-10-21T10:02:37.080Z,1018.22
2022-10-21T10:03:36.751Z,1018.19
2022-10-21T10:04:36.750Z,1018.12
2022-10-21T10:05:36.743Z,1018.1
2022-10-21T10:06:36.771Z,1018.13
2022-10-21T10:07:36.755Z,1018.18
2022-10-21T10:08:36.886Z,1018.13
2022-10-21T10:09:36.732Z,1018.15
2022-10-21T10:10:36.747Z,1018.07
2022-10-21T10:11:36.766Z,1018.07
2022-10-21T10:12:37.006Z,1018.09
2022-10-21T10:13:36.762Z,1018.17
2022-10-21T10:14:36.757Z,1018.08
2022-10-21T10:15:36.818Z,1018.04
2022-10-21T10:16:36.747Z,1018.02
2022-10-21T10:17:36.742Z,1018.01
2022-10-21T10:18:36.741Z,1018.02
2022-10-21T10:20:36.747Z,1017.87
2022-10-21T10:21:36.759Z,1017.93
2022-10-21T10:22:36.962Z,1017.91
2022-10-21T10:23:36.744Z,1017.9
2022-10-21T10:24:36.738Z,1017.87
2022-10-21T10:25:36.759Z,1017.89
2022-10-21T10:26:36.748Z,1017.94
2022-10-21T10:27:36.740Z,1017.99
2022-10-21T10:28:36.794Z,1018.03
2022-10-21T10:29:36.744Z,1017.96
2022-10-21T10:30:36.743Z,1017.93
2022-10-21T10:31:36.750Z,1018
2022-10-21T10:32:36.993Z,1018.02
2022-10-21T10:33:36.736Z,1018
2022-10-21T10:34:36.746Z,1018.09
2022-10-21T10:35:36.730Z,1018.11
2022-10-21T10:36:36.752Z,1018.14
2022-10-21T10:37:36.783Z,1018.19
2022-10-21T10:38:36.738Z,1018.15
2022-10-21T10:39:36.742Z,1018.15
2022-10-21T10:40:36.731Z,1018.1
2022-10-21T10:41:36.766Z,1018.09
2022-10-21T10:42:37.172Z,1017.96
2022-10-21T10:43:36.754Z,1017.95
2022-10-21T10:44:36.742Z,1017.96
2022-10-21T10:45:36.736Z,1017.87
2022-10-21T10:46:36.845Z,1017.79
2022-10-21T10:47:36.978Z,1017.88
2022-10-21T10:48:36.727Z,1017.83
2022-10-21T10:49:36.829Z,1017.87
2022-10-21T10:50:36.765Z,1017.8
2022-10-21T10:51:36.784Z,1017.91
2022-10-21T10:52:36.714Z,1017.99
2022-10-21T10:53:36.718Z,1018.03
2022-10-21T10:54:36.723Z,1018.02
2022-10-21T10:55:36.776Z,1018.07
2022-10-21T10:56:36.756Z,1018.04
2022-10-21T10:57:44.542Z,1018.03
2022-10-21T10:58:36.752Z,1018.14
2022-10-21T10:59:36.719Z,1018.02
2022-10-21T11:00:36.721Z,1018.1
2022-10-21T11:01:36.790Z,1018.05
2022-10-21T11:02:36.720Z,1018.1
2022-10-21T11:03:40.485Z,1018.01
2022-10-21T11:04:36.739Z,1018.17
2022-10-21T11:05:36.723Z,1018.11
2022-10-21T11:06:36.741Z,1018.11
2022-10-21T11:07:37.094Z,1018.13
2022-10-21T11:08:36.814Z,1018.13
2022-10-21T11:09:36.737Z,1018.04
2022-10-21T11:10:36.734Z,1018.03
2022-10-21T11:11:36.758Z,1018.1
2022-10-21T11:12:36.740Z,1018.14
2022-10-21T11:13:40.057Z,1018.18
2022-10-21T11:14:36.735Z,1018.17
2022-10-21T11:15:36.732Z,1018.2
2022-10-21T11:16:50.434Z,1018.19
2022-10-21T11:17:37.002Z,1018.39
2022-10-21T11:18:36.799Z,1018.22
2022-10-21T11:19:36.737Z,1018.2
2022-10-21T11:20:36.735Z,1018.06
2022-10-21T11:21:37.077Z,1018.08
2022-10-21T11:22:36.729Z,1018.03
2022-10-21T11:23:36.736Z,1018.01
2022-10-21T11:24:36.736Z,1018.04
2022-10-21T11:25:36.738Z,1018.06
2022-10-21T11:26:36.747Z,1017.98
2022-10-21T11:27:37.058Z,1017.96
2022-10-21T11:28:36.752Z,1017.96
2022-10-21T11:29:36.732Z,1017.92
2022-10-21T11:30:36.726Z,1017.92
2022-10-21T11:31:43.918Z,1017.94
2022-10-21T11:32:36.736Z,1017.92
2022-10-21T11:33:36.943Z,1017.96
2022-10-21T11:34:36.741Z,1017.89
2022-10-21T11:35:37.014Z,1017.94
2022-10-21T11:36:36.752Z,1017.94
2022-10-21T11:37:37.184Z,1018.02
2022-10-21T11:38:36.726Z,1018.08
2022-10-21T11:39:36.737Z,1018.08
2022-10-21T11:40:36.718Z,1018.08
2022-10-21T11:41:36.747Z,1018.07
2022-10-21T11:42:37.393Z,1018.04
2022-10-21T11:43:36.749Z,1018.08
2022-10-21T11:44:36.735Z,1018.11
2022-10-21T11:45:36.741Z,1018
2022-10-21T11:47:38.929Z,1018
2022-10-21T11:48:37.963Z,1017.95
2022-10-21T11:49:37.968Z,1018.03
2022-10-21T11:50:37.954Z,1017.98
2022-10-21T11:51:38.291Z,1017.95
2022-10-21T11:52:38.481Z,1018
2022-10-21T11:53:38.387Z,1017.98
2022-10-21T11:54:41.613Z,1017.93
2022-10-21T11:55:37.956Z,1017.84
2022-10-21T11:56:37.941Z,1017.82
2022-10-21T11:57:37.959Z,1017.86
2022-10-21T11:58:38.043Z,1017.72
2022-10-21T11:59:37.930Z,1017.81
2022-10-21T12:00:37.948Z,1017.86
2022-10-21T12:01:37.975Z,1017.86
2022-10-21T12:02:38.825Z,1017.84
2022-10-21T12:03:37.930Z,1017.8
2022-10-21T12:04:38.236Z,1017.87
2022-10-21T12:05:37.994Z,1017.82
2022-10-21T12:06:38.020Z,1017.77
2022-10-21T12:07:37.953Z,1017.79
2022-10-21T12:08:41.239Z,1017.79
2022-10-21T12:09:37.943Z,1017.73
2022-10-21T12:10:37.932Z,1017.75
2022-10-21T12:11:38.346Z,1017.76
2022-10-21T12:12:38.255Z,1017.79
2022-10-21T12:13:37.954Z,1017.8
2022-10-21T12:14:37.930Z,1017.8
2022-10-21T12:15:37.932Z,1017.81